createdAt,value
2019-02-03T00:00:10.289Z,3.05
2019-02-03T00:01:11.114Z,3.03
2019-02-03T00:02:11.807Z,3.01
2019-02-03T00:03:12.508Z,2.95
2019-02-03T00:04:14.872Z,3
2019-02-03T00:05:14.772Z,2.95
2019-02-03T00:06:15.191Z,2.91
2019-02-03T00:07:16.445Z,2.93
2019-02-03T00:08:17.014Z,2.94
2019-02-03T00:09:19.098Z,2.93
2019-02-03T00:10:19.584Z,2.93
2019-02-03T00:11:21.278Z,2.9
2019-02-03T00:12:22.010Z,2.93
2019-02-03T00:13:23.329Z,2.85
2019-02-03T00:14:24.014Z,2.83
2019-02-03T00:15:24.708Z,2.79
2019-02-03T00:16:25.461Z,2.76
2019-02-03T00:17:26.474Z,2.73
2019-02-03T00:18:27.346Z,2.83
2019-02-03T00:19:29.080Z,2.83
2019-02-03T00:20:30.352Z,2.93
2019-02-03T00:21:30.771Z,2.88
2019-02-03T00:22:31.572Z,2.83
2019-02-03T00:23:32.638Z,2.83
2019-02-03T00:24:32.936Z,2.76
2019-02-03T00:25:33.137Z,2.88
2019-02-03T00:26:34.531Z,2.88
2019-02-03T00:27:34.950Z,2.93
2019-02-03T00:28:35.230Z,2.91
2019-02-03T00:29:35.923Z,2.88
2019-02-03T00:30:37.176Z,2.9
2019-02-03T00:31:37.766Z,2.75
2019-02-03T00:32:38.747Z,2.69
2019-02-03T00:33:39.321Z,2.79
2019-02-03T00:34:40.593Z,2.76
2019-02-03T00:35:41.596Z,2.77
2019-02-03T00:36:42.582Z,2.72
2019-02-03T00:37:43.492Z,2.73
2019-02-03T00:38:29.862Z,2.69
2019-02-03T00:39:31.974Z,2.69
2019-02-03T00:40:32.135Z,2.68
2019-02-03T00:41:32.550Z,2.64
2019-02-03T00:42:32.668Z,2.75
2019-02-03T00:43:34.195Z,2.75
2019-02-03T00:44:34.917Z,2.76
2019-02-03T00:45:35.721Z,2.76
2019-02-03T00:46:36.129Z,2.72
2019-02-03T00:47:36.831Z,2.75
2019-02-03T00:48:38.553Z,2.73
2019-02-03T00:49:38.516Z,2.7
2019-02-03T00:50:39.600Z,2.72
2019-02-03T00:51:41.159Z,2.72
2019-02-03T00:52:41.306Z,2.72
2019-02-03T00:53:41.768Z,2.76
2019-02-03T00:54:41.889Z,2.69
2019-02-03T00:55:42.038Z,2.72
2019-02-03T00:56:43.295Z,2.62
2019-02-03T00:57:45.678Z,2.64
2019-02-03T00:58:44.816Z,2.58
2019-02-03T00:59:46.248Z,2.7
2019-02-03T01:00:46.662Z,2.55
2019-02-03T01:01:47.421Z,2.58
2019-02-03T01:02:48.731Z,2.59
2019-02-03T01:03:49.796Z,2.52
2019-02-03T01:04:49.769Z,2.59
2019-02-03T01:05:50.931Z,2.58
2019-02-03T01:06:52.935Z,2.52
2019-02-03T01:07:52.758Z,2.54
2019-02-03T01:08:54.054Z,2.57
2019-02-03T01:10:07.053Z,2.57
2019-02-03T01:11:07.854Z,2.59
2019-02-03T01:12:09.136Z,2.59
2019-02-03T01:13:09.511Z,2.61
2019-02-03T01:14:09.947Z,2.62
2019-02-03T01:15:11.224Z,2.58
2019-02-03T01:16:11.654Z,2.61
2019-02-03T01:17:12.647Z,2.58
2019-02-03T01:18:13.189Z,2.55
2019-02-03T01:19:13.537Z,2.58
2019-02-03T01:20:14.256Z,2.57
2019-02-03T01:21:14.271Z,2.54
2019-02-03T01:22:15.986Z,2.5
2019-02-03T01:23:16.698Z,2.54
2019-02-03T01:24:17.405Z,2.51
2019-02-03T01:25:18.110Z,2.43
2019-02-03T01:26:19.511Z,2.52
2019-02-03T01:27:18.672Z,2.57
2019-02-03T01:28:19.122Z,2.55
2019-02-03T01:29:19.401Z,2.55
2019-02-03T01:30:20.420Z,2.47
2019-02-03T01:31:20.895Z,2.4
2019-02-03T01:32:21.880Z,2.47
2019-02-03T01:33:22.328Z,2.44
2019-02-03T01:34:23.778Z,2.57
2019-02-03T01:35:25.831Z,2.51
2019-02-03T01:36:25.568Z,2.47
2019-02-03T01:37:26.290Z,2.51
2019-02-03T01:37:43.101Z,2.43
2019-02-03T01:37:51.288Z,2.5
2019-02-03T01:38:52.425Z,2.47
2019-02-03T01:39:52.374Z,2.41
2019-02-03T01:40:53.817Z,2.47
2019-02-03T01:41:54.543Z,2.51
2019-02-03T01:42:55.235Z,2.59
2019-02-03T01:43:56.654Z,2.5
2019-02-03T01:44:57.913Z,2.46
2019-02-03T01:45:58.603Z,2.41
2019-02-03T01:46:59.141Z,2.41
2019-02-03T01:48:00.517Z,2.43
2019-02-03T01:49:00.786Z,2.43
2019-02-03T01:50:01.128Z,2.44
2019-02-03T01:51:01.587Z,2.5
2019-02-03T01:52:02.581Z,2.43
2019-02-03T01:53:03.536Z,2.43
2019-02-03T01:54:04.235Z,2.51
2019-02-03T01:55:04.665Z,2.46
2019-02-03T01:56:05.091Z,2.43
2019-02-03T01:57:06.399Z,2.41
2019-02-03T01:58:06.397Z,2.43
2019-02-03T01:59:07.044Z,2.43
2019-02-03T02:00:08.024Z,2.4
2019-02-03T02:01:08.439Z,2.4
2019-02-03T02:02:09.580Z,2.43
2019-02-03T02:03:10.556Z,2.46
2019-02-03T02:04:11.268Z,2.41
2019-02-03T02:05:12.276Z,2.4
2019-02-03T02:06:13.875Z,2.39
2019-02-03T02:07:13.948Z,2.37
2019-02-03T02:08:14.359Z,2.39
2019-02-03T02:09:15.211Z,2.28
2019-02-03T02:10:15.665Z,2.28
2019-02-03T02:11:16.111Z,2.4
2019-02-03T02:12:16.812Z,2.37
2019-02-03T02:13:17.092Z,2.3
2019-02-03T02:14:17.796Z,2.43
2019-02-03T02:15:19.672Z,2.25
2019-02-03T02:16:20.210Z,2.28
2019-02-03T02:17:21.030Z,2.33
2019-02-03T02:18:21.717Z,2.33
2019-02-03T02:19:22.681Z,2.32
2019-02-03T02:20:23.097Z,2.33
2019-02-03T02:21:23.824Z,2.33
2019-02-03T02:22:25.369Z,2.39
2019-02-03T02:23:25.786Z,2.4
2019-02-03T02:24:27.784Z,2.39
2019-02-03T02:25:27.540Z,2.36
2019-02-03T02:26:27.968Z,2.37
2019-02-03T02:27:28.800Z,2.4
2019-02-03T02:28:28.500Z,2.4
2019-02-03T02:29:28.830Z,2.46
2019-02-03T02:30:29.295Z,2.39
2019-02-03T02:31:29.755Z,2.41
2019-02-03T02:32:32.291Z,2.39
2019-02-03T02:33:32.298Z,2.43
2019-02-03T02:34:32.470Z,2.47
2019-02-03T02:35:33.493Z,2.4
2019-02-03T02:36:34.285Z,2.4
2019-02-03T02:37:34.993Z,2.37
2019-02-03T02:38:36.261Z,2.39
2019-02-03T02:39:36.463Z,2.34
2019-02-03T02:40:37.470Z,2.4
2019-02-03T02:41:39.678Z,2.36
2019-02-03T02:42:39.363Z,2.36
2019-02-03T02:43:40.534Z,2.4
2019-02-03T02:44:40.784Z,2.4
2019-02-03T02:45:41.325Z,2.37
2019-02-03T02:46:42.567Z,2.4
2019-02-03T02:47:43.546Z,2.36
2019-02-03T02:48:44.124Z,2.34
2019-02-03T02:49:44.440Z,2.37
2019-02-03T02:50:47.396Z,2.33
2019-02-03T02:51:46.753Z,2.37
2019-02-03T02:52:46.728Z,2.43
2019-02-03T02:53:47.215Z,2.34
2019-02-03T02:54:47.649Z,2.37
2019-02-03T02:55:48.109Z,2.26
2019-02-03T02:56:48.822Z,2.32
2019-02-03T02:57:49.537Z,2.36
2019-02-03T02:58:50.269Z,2.28
2019-02-03T02:59:51.742Z,2.34
2019-02-03T03:00:51.655Z,2.4
2019-02-03T03:01:53.062Z,2.33
2019-02-03T03:02:53.346Z,2.34
2019-02-03T03:03:53.776Z,2.34
2019-02-03T03:04:54.776Z,2.36
2019-02-03T03:05:55.210Z,2.36
2019-02-03T03:06:56.303Z,2.33
2019-02-03T03:07:57.509Z,2.34
2019-02-03T03:08:58.003Z,2.32
2019-02-03T03:09:58.252Z,2.33
2019-02-03T03:10:59.233Z,2.28
2019-02-03T03:12:00.498Z,2.33
2019-02-03T03:13:01.231Z,2.28
2019-02-03T03:14:01.657Z,2.36
2019-02-03T03:15:02.215Z,2.36
2019-02-03T03:16:02.928Z,2.36
2019-02-03T03:17:04.329Z,2.4
2019-02-03T03:18:05.413Z,2.4
2019-02-03T03:19:06.118Z,2.33
2019-02-03T03:20:06.741Z,2.36
2019-02-03T03:21:07.523Z,2.32
2019-02-03T03:22:08.789Z,2.36
2019-02-03T03:23:09.049Z,2.39
2019-02-03T03:24:09.041Z,2.43
2019-02-03T03:25:10.028Z,2.36
2019-02-03T03:26:10.589Z,2.44
2019-02-03T03:27:11.021Z,2.39
2019-02-03T03:28:11.601Z,2.37
2019-02-03T03:29:13.340Z,2.36
2019-02-03T03:30:14.110Z,2.46
2019-02-03T03:31:15.371Z,2.43
2019-02-03T03:32:17.205Z,2.5
2019-02-03T03:33:18.027Z,2.55
2019-02-03T03:34:17.895Z,2.55
2019-02-03T03:35:19.897Z,2.57
2019-02-03T03:36:20.362Z,2.58
2019-02-03T03:37:21.093Z,2.57
2019-02-03T03:38:34.571Z,2.58
2019-02-03T03:39:35.709Z,2.68
2019-02-03T03:40:36.416Z,2.64
2019-02-03T03:41:37.862Z,2.68
2019-02-03T03:42:38.562Z,2.68
2019-02-03T03:43:38.983Z,2.7
2019-02-03T03:44:39.971Z,2.64
2019-02-03T03:45:40.674Z,2.76
2019-02-03T03:46:42.036Z,2.69
2019-02-03T03:47:42.027Z,2.7
2019-02-03T03:48:43.582Z,2.69
2019-02-03T03:49:43.777Z,2.76
2019-02-03T03:50:44.853Z,2.7
2019-02-03T03:51:45.787Z,2.73
2019-02-03T03:52:46.779Z,2.68
2019-02-03T03:53:46.541Z,2.69
2019-02-03T03:54:46.976Z,2.7
2019-02-03T03:55:49.210Z,2.73
2019-02-03T03:56:49.017Z,2.69
2019-02-03T03:57:50.309Z,2.65
2019-02-03T03:58:50.882Z,2.68
2019-02-03T03:59:51.004Z,2.69
2019-02-03T04:00:51.599Z,2.69
2019-02-03T04:01:52.612Z,2.75
2019-02-03T04:02:53.327Z,2.65
2019-02-03T04:03:54.184Z,2.7
2019-02-03T04:04:57.026Z,2.65
2019-02-03T04:05:57.149Z,2.68
2019-02-03T04:06:57.727Z,2.61
2019-02-03T04:07:58.735Z,2.75
2019-02-03T04:08:59.725Z,2.7
2019-02-03T04:09:59.798Z,2.69
2019-02-03T04:11:00.763Z,2.72
2019-02-03T04:12:02.053Z,2.72
2019-02-03T04:13:03.107Z,2.65
2019-02-03T04:14:04.454Z,2.72
2019-02-03T04:15:04.578Z,2.72
2019-02-03T04:16:04.860Z,2.7
2019-02-03T04:17:05.622Z,2.69
2019-02-03T04:18:06.128Z,2.7
2019-02-03T04:19:06.836Z,2.69
2019-02-03T04:20:07.350Z,2.64
2019-02-03T04:21:08.523Z,2.65
2019-02-03T04:22:09.546Z,2.68
2019-02-03T04:23:10.623Z,2.7
2019-02-03T04:24:10.043Z,2.65
2019-02-03T04:25:11.035Z,2.69
2019-02-03T04:26:12.436Z,2.58
2019-02-03T04:27:13.425Z,2.55
2019-02-03T04:28:14.696Z,2.52
2019-02-03T04:29:15.536Z,2.5
2019-02-03T04:30:16.670Z,2.46
2019-02-03T04:31:16.664Z,2.43
2019-02-03T04:32:18.558Z,2.41
2019-02-03T04:33:18.397Z,2.46
2019-02-03T04:34:19.116Z,2.46
2019-02-03T04:35:20.304Z,2.46
2019-02-03T04:36:20.980Z,2.46
2019-02-03T04:37:20.501Z,2.5
2019-02-03T04:38:21.496Z,2.41
2019-02-03T04:39:22.507Z,2.43
2019-02-03T04:40:23.291Z,2.43
2019-02-03T04:41:25.241Z,2.41
2019-02-03T04:42:25.603Z,2.46
2019-02-03T04:43:26.614Z,2.44
2019-02-03T04:44:26.894Z,2.46
2019-02-03T04:45:27.650Z,2.46
2019-02-03T04:46:28.644Z,2.5
2019-02-03T04:47:29.356Z,2.43
2019-02-03T04:48:30.165Z,2.5
2019-02-03T04:49:31.758Z,2.4
2019-02-03T04:50:34.769Z,2.47
2019-02-03T04:51:32.108Z,2.47
2019-02-03T04:52:32.840Z,2.4
2019-02-03T04:53:33.884Z,2.43
2019-02-03T04:54:34.454Z,2.4
2019-02-03T04:55:35.161Z,2.43
2019-02-03T04:56:36.757Z,2.43
2019-02-03T04:57:36.742Z,2.52
2019-02-03T04:58:38.769Z,2.55
2019-02-03T04:59:38.771Z,2.68
2019-02-03T05:00:39.486Z,2.68
2019-02-03T05:01:40.195Z,2.69
2019-02-03T05:02:40.969Z,2.73
2019-02-03T05:03:42.117Z,2.72
2019-02-03T05:04:42.996Z,2.73
2019-02-03T05:05:43.709Z,2.76
2019-02-03T05:06:44.729Z,2.68
2019-02-03T05:07:46.272Z,2.69
2019-02-03T05:08:46.979Z,2.72
2019-02-03T05:09:48.046Z,2.76
2019-02-03T05:10:48.480Z,2.77
2019-02-03T05:11:49.189Z,2.77
2019-02-03T05:12:49.527Z,2.72
2019-02-03T05:13:50.241Z,2.73
2019-02-03T05:14:51.240Z,2.8
2019-02-03T05:15:51.698Z,2.77
2019-02-03T05:16:53.372Z,2.76
2019-02-03T05:17:54.424Z,2.77
2019-02-03T05:18:54.729Z,2.72
2019-02-03T05:19:55.729Z,2.75
2019-02-03T05:20:57.199Z,2.73
2019-02-03T05:21:57.899Z,2.69
2019-02-03T05:22:59.346Z,2.82
2019-02-03T05:24:00.662Z,2.79
2019-02-03T05:25:01.411Z,2.76
2019-02-03T05:26:02.946Z,2.72
2019-02-03T05:27:04.505Z,2.83
2019-02-03T05:28:05.482Z,2.73
2019-02-03T05:29:06.190Z,2.77
2019-02-03T05:30:06.908Z,2.77
2019-02-03T05:31:07.807Z,2.75
2019-02-03T05:32:08.811Z,2.73
2019-02-03T05:33:09.843Z,2.7
2019-02-03T05:34:10.545Z,2.68
2019-02-03T05:35:11.897Z,2.79
2019-02-03T05:36:12.078Z,2.69
2019-02-03T05:37:12.262Z,2.7
2019-02-03T05:38:13.297Z,2.72
2019-02-03T05:39:26.408Z,2.76
2019-02-03T05:40:27.176Z,2.7
2019-02-03T05:41:28.759Z,2.72
2019-02-03T05:42:28.972Z,2.8
2019-02-03T05:43:30.522Z,2.87
2019-02-03T05:44:30.958Z,2.77
2019-02-03T05:45:31.936Z,2.8
2019-02-03T05:46:33.342Z,2.91
2019-02-03T05:47:33.243Z,2.85
2019-02-03T05:48:34.788Z,2.79
2019-02-03T05:49:34.768Z,2.76
2019-02-03T05:50:35.463Z,2.76
2019-02-03T05:51:36.442Z,2.76
2019-02-03T05:52:37.866Z,2.73
2019-02-03T05:53:38.853Z,2.7
2019-02-03T05:54:38.889Z,2.75
2019-02-03T05:55:40.975Z,2.7
2019-02-03T05:56:41.092Z,2.75
2019-02-03T05:57:41.814Z,2.75
2019-02-03T05:58:42.806Z,2.75
2019-02-03T05:59:43.306Z,2.72
2019-02-03T06:00:44.254Z,2.75
2019-02-03T06:01:45.252Z,2.7
2019-02-03T06:02:45.984Z,2.69
2019-02-03T06:03:46.177Z,2.7
2019-02-03T06:04:48.105Z,2.7
2019-02-03T06:05:48.515Z,2.76
2019-02-03T06:06:49.209Z,2.69
2019-02-03T06:07:49.455Z,2.68
2019-02-03T06:08:50.285Z,2.65
2019-02-03T06:09:51.432Z,2.76
2019-02-03T06:10:52.143Z,2.68
2019-02-03T06:11:52.840Z,2.72
2019-02-03T06:12:53.870Z,2.75
2019-02-03T06:13:56.094Z,2.68
2019-02-03T06:14:56.708Z,2.54
2019-02-03T06:15:57.254Z,2.62
2019-02-03T06:16:58.250Z,2.51
2019-02-03T06:17:58.688Z,2.51
2019-02-03T06:18:59.694Z,2.54
2019-02-03T06:20:01.186Z,2.4
2019-02-03T06:21:02.046Z,2.51
2019-02-03T06:22:02.767Z,2.54
2019-02-03T06:23:04.673Z,2.43
2019-02-03T06:24:04.111Z,2.43
2019-02-03T06:25:04.668Z,2.47
2019-02-03T06:26:05.518Z,2.52
2019-02-03T06:27:06.507Z,2.57
2019-02-03T06:28:07.622Z,2.57
2019-02-03T06:29:08.617Z,2.58
2019-02-03T06:30:09.335Z,2.58
2019-02-03T06:31:09.903Z,2.54
2019-02-03T06:32:11.677Z,2.57
2019-02-03T06:33:11.612Z,2.57
2019-02-03T06:34:13.117Z,2.58
2019-02-03T06:35:13.818Z,2.69
2019-02-03T06:36:15.358Z,2.62
2019-02-03T06:37:16.078Z,2.65
2019-02-03T06:38:16.550Z,2.62
2019-02-03T06:39:17.535Z,2.54
2019-02-03T06:40:18.253Z,2.57
2019-02-03T06:41:20.626Z,2.65
2019-02-03T06:42:20.907Z,2.61
2019-02-03T06:43:21.898Z,2.64
2019-02-03T06:44:22.471Z,2.54
2019-02-03T06:45:22.897Z,2.64
2019-02-03T06:46:23.044Z,2.75
2019-02-03T06:47:23.756Z,2.72
2019-02-03T06:48:25.017Z,2.62
2019-02-03T06:49:26.568Z,2.69
2019-02-03T06:50:28.112Z,2.58
2019-02-03T06:51:27.604Z,2.59
2019-02-03T06:52:28.879Z,2.59
2019-02-03T06:53:29.019Z,2.64
2019-02-03T06:54:30.456Z,2.57
2019-02-03T06:55:31.676Z,2.65
2019-02-03T06:56:32.709Z,2.72
2019-02-03T06:57:33.244Z,2.62
2019-02-03T06:58:33.681Z,2.73
2019-02-03T06:59:35.998Z,2.68
2019-02-03T06:59:52.437Z,2.7
2019-02-03T06:59:59.126Z,2.59
2019-02-03T07:00:59.000Z,2.61
2019-02-03T07:02:00.143Z,2.58
2019-02-03T07:03:01.613Z,2.58
2019-02-03T07:04:01.949Z,2.61
2019-02-03T07:05:02.393Z,2.58
2019-02-03T07:06:03.543Z,2.7
2019-02-03T07:07:04.270Z,2.69
2019-02-03T07:08:04.782Z,2.64
2019-02-03T07:09:05.214Z,2.64
2019-02-03T07:10:06.638Z,2.58
2019-02-03T07:11:07.508Z,2.58
2019-02-03T07:12:09.480Z,2.55
2019-02-03T07:13:08.570Z,2.55
2019-02-03T07:14:08.997Z,2.55
2019-02-03T07:15:10.273Z,2.54
2019-02-03T07:16:11.080Z,2.57
2019-02-03T07:17:11.508Z,2.55
2019-02-03T07:18:12.043Z,2.58
2019-02-03T07:19:12.479Z,2.58
2019-02-03T07:20:12.994Z,2.58
2019-02-03T07:21:13.871Z,2.59
2019-02-03T07:22:14.827Z,2.61
2019-02-03T07:23:15.252Z,2.51
2019-02-03T07:24:16.690Z,2.65
2019-02-03T07:25:17.852Z,2.65
2019-02-03T07:26:18.367Z,2.7
2019-02-03T07:27:19.073Z,2.58
2019-02-03T07:28:19.500Z,2.57
2019-02-03T07:29:20.825Z,2.57
2019-02-03T07:30:21.110Z,2.68
2019-02-03T07:31:21.658Z,2.57
2019-02-03T07:32:22.375Z,2.52
2019-02-03T07:33:22.920Z,2.65
2019-02-03T07:34:24.319Z,2.55
2019-02-03T07:35:24.766Z,2.55
2019-02-03T07:36:25.507Z,2.52
2019-02-03T07:37:26.217Z,2.51
2019-02-03T07:38:27.452Z,2.55
2019-02-03T07:39:27.889Z,2.46
2019-02-03T07:40:28.632Z,2.44
2019-02-03T07:41:28.872Z,2.52
2019-02-03T07:42:29.874Z,2.5
2019-02-03T07:43:30.428Z,2.52
2019-02-03T07:44:30.853Z,2.4
2019-02-03T07:45:32.000Z,2.51
2019-02-03T07:46:32.724Z,2.54
2019-02-03T07:47:34.869Z,2.5
2019-02-03T07:48:34.462Z,2.58
2019-02-03T07:49:34.900Z,2.47
2019-02-03T07:50:35.345Z,2.44
2019-02-03T07:51:35.971Z,2.43
2019-02-03T07:52:36.443Z,2.52
2019-02-03T07:53:37.867Z,2.54
2019-02-03T07:54:38.313Z,2.58
2019-02-03T07:55:38.603Z,2.57
2019-02-03T07:56:40.888Z,2.55
2019-02-03T07:57:40.583Z,2.57
2019-02-03T07:58:41.745Z,2.55
2019-02-03T07:59:42.196Z,2.61
2019-02-03T08:00:42.762Z,2.57
2019-02-03T08:01:43.655Z,2.61
2019-02-03T08:02:44.737Z,2.52
2019-02-03T08:03:44.893Z,2.61
2019-02-03T08:04:46.771Z,2.59
2019-02-03T08:05:47.305Z,2.69
2019-02-03T08:06:47.840Z,2.61
2019-02-03T08:07:49.116Z,2.55
2019-02-03T08:09:03.700Z,2.62
2019-02-03T08:10:04.271Z,2.69
2019-02-03T08:11:06.330Z,2.65
2019-02-03T08:12:07.046Z,2.65
2019-02-03T08:13:07.758Z,2.68
2019-02-03T08:14:08.902Z,2.69
2019-02-03T08:15:09.636Z,2.61
2019-02-03T08:16:11.228Z,2.65
2019-02-03T08:17:11.200Z,2.68
2019-02-03T08:18:11.948Z,2.72
2019-02-03T08:19:12.225Z,2.65
2019-02-03T08:20:13.383Z,2.65
2019-02-03T08:21:14.221Z,2.65
2019-02-03T08:22:14.770Z,2.64
2019-02-03T08:23:15.537Z,2.69
2019-02-03T08:24:16.248Z,2.7
2019-02-03T08:25:17.450Z,2.65
2019-02-03T08:26:17.077Z,2.69
2019-02-03T08:27:17.807Z,2.57
2019-02-03T08:28:18.503Z,2.61
2019-02-03T08:29:19.199Z,2.58
2019-02-03T08:30:20.121Z,2.55
2019-02-03T08:31:20.841Z,2.68
2019-02-03T08:32:21.911Z,2.73
2019-02-03T08:33:23.279Z,2.76
2019-02-03T08:34:26.778Z,2.68
2019-02-03T08:35:24.582Z,2.55
2019-02-03T08:36:25.621Z,2.7
2019-02-03T08:37:26.606Z,2.65
2019-02-03T08:38:27.147Z,2.7
2019-02-03T08:39:27.847Z,2.75
2019-02-03T08:40:42.583Z,2.75
2019-02-03T08:41:44.006Z,2.7
2019-02-03T08:42:44.458Z,2.91
2019-02-03T08:43:45.067Z,2.75
2019-02-03T08:44:47.658Z,2.82
2019-02-03T08:45:48.445Z,2.7
2019-02-03T08:46:48.892Z,2.76
2019-02-03T08:47:49.985Z,2.85
2019-02-03T08:48:50.966Z,2.73
2019-02-03T08:49:51.947Z,2.69
2019-02-03T08:50:52.385Z,2.7
2019-02-03T08:51:52.543Z,2.77
2019-02-03T08:52:53.554Z,2.75
2019-02-03T08:53:55.082Z,2.68
2019-02-03T08:55:00.872Z,2.7
2019-02-03T08:55:06.723Z,2.68
2019-02-03T08:56:07.459Z,2.72
2019-02-03T08:57:07.221Z,2.7
2019-02-03T08:58:07.660Z,2.72
2019-02-03T08:59:08.362Z,2.79
2019-02-03T09:00:09.356Z,2.72
2019-02-03T09:01:09.510Z,2.8
2019-02-03T09:02:10.355Z,2.7
2019-02-03T09:03:11.068Z,2.65
2019-02-03T09:04:13.080Z,2.72
2019-02-03T09:05:13.389Z,2.68
2019-02-03T09:06:14.062Z,2.75
2019-02-03T09:07:15.054Z,2.61
2019-02-03T09:08:15.799Z,2.68
2019-02-03T09:09:16.262Z,2.64
2019-02-03T09:10:16.978Z,2.69
2019-02-03T09:11:18.682Z,2.73
2019-02-03T09:12:18.686Z,2.72
2019-02-03T09:13:20.288Z,2.72
2019-02-03T09:14:19.983Z,2.76
2019-02-03T09:15:21.478Z,2.73
2019-02-03T09:16:21.822Z,2.68
2019-02-03T09:17:22.248Z,2.73
2019-02-03T09:18:26.752Z,2.69
2019-02-03T09:18:39.173Z,2.77
2019-02-03T09:18:52.174Z,2.7
2019-02-03T09:19:04.509Z,2.73
2019-02-03T09:19:16.754Z,2.75
2019-02-03T09:19:28.867Z,2.75
2019-02-03T09:19:40.694Z,2.76
2019-02-03T09:19:49.316Z,2.79
2019-02-03T09:20:50.277Z,2.83
2019-02-03T09:21:51.286Z,2.88
2019-02-03T09:22:51.876Z,2.88
2019-02-03T09:23:52.579Z,2.87
2019-02-03T09:24:53.685Z,2.93
2019-02-03T09:25:55.238Z,3.06
2019-02-03T09:26:55.318Z,3.12
2019-02-03T09:27:55.740Z,3.03
2019-02-03T09:28:56.044Z,2.97
2019-02-03T09:29:56.562Z,3.01
2019-02-03T09:30:57.690Z,2.95
2019-02-03T09:31:57.952Z,2.98
2019-02-03T09:32:59.100Z,2.91
2019-02-03T09:33:59.100Z,2.85
2019-02-03T09:35:00.774Z,2.87
2019-02-03T09:36:00.778Z,2.9
2019-02-03T09:37:01.766Z,2.91
2019-02-03T09:38:01.742Z,2.95
2019-02-03T09:39:02.465Z,2.93
2019-02-03T09:40:04.040Z,2.88
2019-02-03T09:41:05.025Z,2.9
2019-02-03T09:42:05.467Z,2.94
2019-02-03T09:43:06.932Z,2.85
2019-02-03T09:44:08.137Z,2.93
2019-02-03T09:45:07.501Z,2.98
2019-02-03T09:46:08.204Z,2.9
2019-02-03T09:47:08.482Z,2.95
2019-02-03T09:48:08.662Z,2.98
2019-02-03T09:49:10.104Z,3
2019-02-03T09:50:14.631Z,3.09
2019-02-03T09:50:26.090Z,3.05
2019-02-03T09:50:37.417Z,2.97
2019-02-03T09:51:40.251Z,2.97
2019-02-03T09:51:52.295Z,2.93
2019-02-03T09:52:01.338Z,2.97
2019-02-03T09:53:01.886Z,2.9
2019-02-03T09:54:02.586Z,3.05
2019-02-03T09:55:03.573Z,3
2019-02-03T09:56:04.294Z,2.94
2019-02-03T09:57:05.015Z,2.94
2019-02-03T09:58:06.031Z,2.85
2019-02-03T09:59:07.314Z,2.91
2019-02-03T10:00:07.023Z,2.88
2019-02-03T10:01:07.811Z,2.87
2019-02-03T10:02:08.867Z,2.73
2019-02-03T10:03:09.289Z,2.7
2019-02-03T10:04:09.730Z,2.72
2019-02-03T10:05:10.888Z,2.65
2019-02-03T10:06:12.322Z,2.65
2019-02-03T10:07:13.199Z,2.75
2019-02-03T10:08:16.947Z,2.73
2019-02-03T10:09:17.459Z,2.83
2019-02-03T10:10:18.002Z,2.87
2019-02-03T10:11:18.428Z,3.01
2019-02-03T10:12:19.615Z,3.03
2019-02-03T10:13:20.561Z,3.09
2019-02-03T10:14:21.004Z,3.12
2019-02-03T10:15:22.436Z,3.13
2019-02-03T10:16:22.870Z,3.21
2019-02-03T10:17:24.412Z,3.31
2019-02-03T10:18:24.682Z,3.36
2019-02-03T10:19:26.146Z,3.3
2019-02-03T10:20:26.624Z,3.26
2019-02-03T10:21:27.360Z,3.33
2019-02-03T10:22:28.790Z,3.12
2019-02-03T10:23:29.638Z,3.15
2019-02-03T10:24:43.832Z,3.06
2019-02-03T10:25:42.421Z,3.12
2019-02-03T10:26:43.182Z,3.08
2019-02-03T10:27:43.957Z,3.12
2019-02-03T10:28:48.576Z,3.12
2019-02-03T10:29:48.686Z,3.21
2019-02-03T10:30:49.613Z,3.13
2019-02-03T10:31:50.665Z,3.24
2019-02-03T10:32:51.367Z,3.19
2019-02-03T10:33:51.377Z,3.09
2019-02-03T10:34:52.092Z,3.24
2019-02-03T10:35:52.657Z,3.18
2019-02-03T10:36:53.369Z,3.09
2019-02-03T10:37:55.161Z,3.21
2019-02-03T10:38:54.772Z,3.12
2019-02-03T10:39:55.474Z,3.09
2019-02-03T10:40:55.927Z,3.12
2019-02-03T10:41:56.391Z,3.21
2019-02-03T10:42:57.118Z,3.29
2019-02-03T10:43:58.166Z,3.24
2019-02-03T10:44:58.606Z,3.36
2019-02-03T10:46:00.030Z,3.24
2019-02-03T10:47:02.148Z,3.36
2019-02-03T10:48:01.576Z,3.29
2019-02-03T10:49:03.219Z,3.26
2019-02-03T10:50:03.427Z,3.29
2019-02-03T10:51:03.153Z,3.4
2019-02-03T10:52:04.361Z,3.33
2019-02-03T10:53:04.796Z,3.41
2019-02-03T10:54:06.060Z,3.34
2019-02-03T10:55:08.200Z,3.26
2019-02-03T10:56:07.205Z,3.22
2019-02-03T10:57:07.677Z,3.27
2019-02-03T10:58:08.021Z,3.09
2019-02-03T10:59:08.970Z,3.11
2019-02-03T11:00:22.461Z,3.08
2019-02-03T11:01:22.149Z,3.03
2019-02-03T11:02:22.345Z,2.91
2019-02-03T11:03:22.549Z,2.91
2019-02-03T11:04:22.763Z,2.98
2019-02-03T11:05:23.674Z,2.88
2019-02-03T11:06:24.109Z,2.77
2019-02-03T11:07:25.839Z,2.7
2019-02-03T11:08:26.568Z,2.75
2019-02-03T11:09:27.888Z,2.68
2019-02-03T11:10:28.519Z,2.68
2019-02-03T11:11:40.741Z,2.64
2019-02-03T11:12:41.500Z,2.72
2019-02-03T11:13:41.827Z,2.72
2019-02-03T11:14:43.120Z,2.73
2019-02-03T11:15:43.678Z,2.72
2019-02-03T11:16:44.244Z,2.72
2019-02-03T11:17:45.687Z,2.7
2019-02-03T11:18:46.493Z,2.69
2019-02-03T11:19:47.311Z,2.7
2019-02-03T11:20:47.963Z,2.58
2019-02-03T11:21:48.776Z,2.72
2019-02-03T11:22:49.115Z,2.51
2019-02-03T11:23:49.636Z,2.65
2019-02-03T11:24:50.507Z,2.64
2019-02-03T11:25:51.302Z,2.69
2019-02-03T11:26:51.451Z,2.64
2019-02-03T11:27:52.843Z,2.72
2019-02-03T11:28:54.208Z,2.7
2019-02-03T11:29:55.043Z,2.51
2019-02-03T11:30:56.410Z,2.58
2019-02-03T11:31:57.702Z,2.58
2019-02-03T11:33:11.226Z,2.57
2019-02-03T11:34:10.434Z,2.55
2019-02-03T11:35:10.595Z,2.59
2019-02-03T11:36:11.859Z,2.61
2019-02-03T11:37:12.327Z,2.59
2019-02-03T11:38:12.813Z,2.61
2019-02-03T11:39:13.127Z,2.65
2019-02-03T11:40:13.608Z,2.55
2019-02-03T11:41:14.354Z,2.59
2019-02-03T11:42:15.124Z,2.57
2019-02-03T11:43:15.535Z,2.55
2019-02-03T11:44:16.254Z,2.58
2019-02-03T11:45:17.592Z,2.57
2019-02-03T11:46:18.075Z,2.61
2019-02-03T11:47:18.840Z,2.57
2019-02-03T11:48:19.595Z,2.61
2019-02-03T11:49:20.495Z,2.44
2019-02-03T11:50:22.276Z,2.44
2019-02-03T11:51:21.917Z,2.51
2019-02-03T11:52:23.307Z,2.57
2019-02-03T11:53:23.773Z,2.39
2019-02-03T11:54:24.438Z,2.5
2019-02-03T11:55:25.301Z,2.5
2019-02-03T11:56:26.753Z,2.44
2019-02-03T11:57:27.470Z,2.52
2019-02-03T11:58:28.242Z,2.52
2019-02-03T11:59:29.719Z,2.52
2019-02-03T12:00:29.445Z,2.5
2019-02-03T12:01:30.714Z,2.5
2019-02-03T12:02:43.475Z,2.57
2019-02-03T12:03:44.622Z,2.52
2019-02-03T12:04:44.768Z,2.52
2019-02-03T12:05:46.478Z,2.59
2019-02-03T12:06:46.905Z,2.62
2019-02-03T12:07:47.756Z,2.61
2019-02-03T12:08:48.587Z,2.51
2019-02-03T12:09:49.013Z,2.51
2019-02-03T12:10:50.707Z,2.57
2019-02-03T12:12:05.113Z,2.69
2019-02-03T12:13:06.744Z,2.68
2019-02-03T12:14:06.389Z,2.76
2019-02-03T12:15:07.388Z,2.7
2019-02-03T12:16:08.102Z,2.73
2019-02-03T12:17:08.610Z,2.94
2019-02-03T12:18:09.638Z,2.73
2019-02-03T12:19:10.095Z,2.73
2019-02-03T12:20:10.264Z,2.72
2019-02-03T12:21:11.412Z,2.69
2019-02-03T12:22:14.216Z,2.7
2019-02-03T12:23:14.111Z,2.75
2019-02-03T12:24:15.103Z,2.69
2019-02-03T12:25:15.527Z,2.59
2019-02-03T12:26:15.968Z,2.52
2019-02-03T12:27:16.683Z,2.59
2019-02-03T12:28:18.252Z,2.58
2019-02-03T12:29:18.848Z,2.54
2019-02-03T12:30:18.991Z,2.52
2019-02-03T12:31:20.806Z,2.44
2019-02-03T12:32:21.026Z,2.39
2019-02-03T12:33:22.744Z,2.37
2019-02-03T12:34:22.741Z,2.28
2019-02-03T12:35:24.393Z,2.3
2019-02-03T12:36:24.809Z,2.26
2019-02-03T12:37:25.540Z,2.22
2019-02-03T12:38:26.249Z,2.15
2019-02-03T12:39:26.964Z,2.18
2019-02-03T12:40:28.802Z,2.1
2019-02-03T12:41:28.230Z,2.19
2019-02-03T12:42:28.772Z,2.25
2019-02-03T12:43:29.192Z,2.21
2019-02-03T12:44:29.639Z,2.1
2019-02-03T12:45:31.164Z,2.1
2019-02-03T12:46:31.964Z,2.19
2019-02-03T12:47:32.694Z,2.21
2019-02-03T12:48:32.848Z,2.25
2019-02-03T12:49:34.907Z,2.22
2019-02-03T12:50:35.475Z,2.22
2019-02-03T12:51:35.927Z,2.23
2019-02-03T12:52:37.069Z,2.21
2019-02-03T12:53:37.504Z,2.22
2019-02-03T12:54:38.212Z,2.15
2019-02-03T12:55:39.014Z,2.12
2019-02-03T12:56:39.829Z,2.08
2019-02-03T12:57:41.247Z,2.1
2019-02-03T12:58:41.978Z,2.32
2019-02-03T12:59:42.242Z,2.33
2019-02-03T13:00:43.234Z,2.34
2019-02-03T13:01:44.624Z,2.34
2019-02-03T13:02:45.703Z,2.21
2019-02-03T13:03:45.631Z,2.12
2019-02-03T13:04:46.337Z,2.14
2019-02-03T13:05:47.044Z,2.23
2019-02-03T13:06:48.504Z,2.16
2019-02-03T13:07:48.767Z,2.14
2019-02-03T13:08:48.980Z,2.15
2019-02-03T13:09:49.685Z,2.16
2019-02-03T13:10:50.391Z,2.16
2019-02-03T13:11:51.103Z,2.1
2019-02-03T13:12:52.374Z,1.98
2019-02-03T13:13:52.938Z,1.97
2019-02-03T13:14:53.645Z,1.98
2019-02-03T13:15:54.908Z,1.92
2019-02-03T13:16:55.903Z,1.92
2019-02-03T13:17:56.741Z,1.86
2019-02-03T13:18:57.006Z,1.84
2019-02-03T13:19:57.998Z,1.81
2019-02-03T13:20:57.998Z,1.88